sensor_id;sensor_type;location;lat;lon;timestamp;pressure;altitude;pressure_sealevel;temperature;humidity
19843;BME280;10082;51.038;6.992;2023-03-15T00:01:03;112171.53;;;-144.33;100.00
19843;BME280;10082;51.038;6.992;2023-03-15T00:03:33;112171.53;;;-144.33;100.00
19843;BME280;10082;51.038;6.992;2023-03-15T00:06:02;112171.53;;;-144.33;100.00
19843;BME280;10082;51.038;6.992;2023-03-15T00:08:30;112171.53;;;-144.33;100.00
19843;BME280;10082;51.038;6.992;2023-03-15T00:10:58;112171.53;;;-144.33;100.00
19843;BME280;10082;51.038;6.992;2023-03-15T00:13:27;112171.53;;;-144.33;100.00
19843;BME280;10082;51.038;6.992;2023-03-15T00:15:59;112171.53;;;-144.33;100.00
19843;BME280;10082;51.038;6.992;2023-03-15T00:18:27;112171.53;;;-144.33;100.00
19843;BME280;10082;51.038;6.992;2023-03-15T00:20:55;112171.53;;;-144.33;100.00
19843;BME280;10082;51.038;6.992;2023-03-15T00:23:22;112171.53;;;-144.33;100.00
19843;BME280;10082;51.038;6.992;2023-03-15T00:25:51;112171.53;;;-144.33;100.00
19843;BME280;10082;51.038;6.992;2023-03-15T00:28:19;112171.53;;;-144.33;100.00
19843;BME280;10082;51.038;6.992;2023-03-15T00:30:47;112171.53;;;-144.33;100.00
19843;BME280;10082;51.038;6.992;2023-03-15T00:33:16;112171.53;;;-144.33;100.00
19843;BME280;10082;51.038;6.992;2023-03-15T00:35:44;112171.53;;;-144.33;100.00
19843;BME280;10082;51.038;6.992;2023-03-15T00:38:12;112171.53;;;-144.33;100.00
19843;BME280;10082;51.038;6.992;2023-03-15T00:40:40;112171.53;;;-144.33;100.00
19843;BME280;10082;51.038;6.992;2023-03-15T00:43:08;112171.53;;;-144.33;100.00
19843;BME280;10082;51.038;6.992;2023-03-15T00:45:35;112171.53;;;-144.33;100.00
19843;BME280;10082;51.038;6.992;2023-03-15T00:48:04;112171.53;;;-144.33;100.00
19843;BME280;10082;51.038;6.992;2023-03-15T00:50:33;112171.53;;;-144.33;100.00
19843;BME280;10082;51.038;6.992;2023-03-15T00:53:00;112171.53;;;-144.33;100.00
19843;BME280;10082;51.038;6.992;2023-03-15T00:55:28;112171.53;;;-144.33;100.00
19843;BME280;10082;51.038;6.992;2023-03-15T00:57:55;112171.53;;;-144.33;100.00
19843;BME280;10082;51.038;6.992;2023-03-15T01:00:23;112171.53;;;-144.33;100.00
19843;BME280;10082;51.038;6.992;2023-03-15T01:02:50;112171.53;;;-144.33;100.00
19843;BME280;10082;51.038;6.992;2023-03-15T01:05:18;112171.53;;;-144.33;100.00
19843;BME280;10082;51.038;6.992;2023-03-15T01:07:47;112099.06;;;-144.33;100.00
19843;BME280;10082;51.038;6.992;2023-03-15T01:10:16;111972.25;;;-144.33;100.00
19843;BME280;10082;51.038;6.992;2023-03-15T01:12:44;111283.91;;;-144.33;100.00
19843;BME280;10082;51.038;6.992;2023-03-15T01:15:13;110808.97;;;-144.33;100.00
19843;BME280;10082;51.038;6.992;2023-03-15T01:17:42;109396.59;;;-144.33;100.00
19843;BME280;10082;51.038;6.992;2023-03-15T01:20:11;108419.06;;;-144.33;100.00
19843;BME280;10082;51.038;6.992;2023-03-15T01:22:41;107562.41;;;-144.33;100.00
19843;BME280;10082;51.038;6.992;2023-03-15T01:25:10;105616.50;;;-144.33;100.00
19843;BME280;10082;51.038;6.992;2023-03-15T01:27:37;103159.31;;;-144.33;100.00
19843;BME280;10082;51.038;6.992;2023-03-15T01:30:05;100376.47;;;-144.33;100.00
19843;BME280;10082;51.038;6.992;2023-03-15T01:32:33;97308.69;;;-144.33;100.00
19843;BME280;10082;51.038;6.992;2023-03-15T01:35:00;94587.94;;;-144.33;100.00
19843;BME280;10082;51.038;6.992;2023-03-15T01:37:27;91784.94;;;-144.33;100.00
19843;BME280;10082;51.038;6.992;2023-03-15T01:39:55;88797.72;;;-144.33;100.00
19843;BME280;10082;51.038;6.992;2023-03-15T01:42:24;87322.94;;;-144.33;100.00
19843;BME280;10082;51.038;6.992;2023-03-15T01:44:54;85964.72;;;-144.33;100.00
19843;BME280;10082;51.038;6.992;2023-03-15T01:47:22;84816.88;;;-144.33;100.00
19843;BME280;10082;51.038;6.992;2023-03-15T01:49:55;83411.50;;;-144.33;100.00
19843;BME280;10082;51.038;6.992;2023-03-15T01:52:27;82478.22;;;-144.33;100.00
19843;BME280;10082;51.038;6.992;2023-03-15T01:55:04;82256.41;;;-144.33;100.00
19843;BME280;10082;51.038;6.992;2023-03-15T01:57:40;81085.66;;;-144.33;100.00
19843;BME280;10082;51.038;6.992;2023-03-15T02:00:12;80292.69;;;-144.33;100.00
19843;BME280;10082;51.038;6.992;2023-03-15T02:03:03;79717.53;;;-144.33;100.00
19843;BME280;10082;51.038;6.992;2023-03-15T02:05:39;80067.03;;;-144.33;100.00
19843;BME280;10082;51.038;6.992;2023-03-15T02:08:12;80560.31;;;-144.33;100.00
19843;BME280;10082;51.038;6.992;2023-03-15T02:10:42;81443.25;;;-144.33;100.00
19843;BME280;10082;51.038;6.992;2023-03-15T02:13:16;82867.88;;;-144.33;100.00
19843;BME280;10082;51.038;6.992;2023-03-15T02:15:44;84087.13;;;-144.33;100.00
19843;BME280;10082;51.038;6.992;2023-03-15T02:18:18;85166.78;;;-144.33;100.00
19843;BME280;10082;51.038;6.992;2023-03-15T02:20:50;86536.75;;;-144.33;100.00
19843;BME280;10082;51.038;6.992;2023-03-15T02:23:23;87386.97;;;-144.33;100.00
19843;BME280;10082;51.038;6.992;2023-03-15T02:25:56;87821.13;;;-144.33;100.00
19843;BME280;10082;51.038;6.992;2023-03-15T02:28:32;86148.72;;;-144.33;100.00
19843;BME280;10082;51.038;6.992;2023-03-15T02:30:59;86004.72;;;-144.33;100.00
19843;BME280;10082;51.038;6.992;2023-03-15T02:33:31;87080.88;;;-144.33;100.00
19843;BME280;10082;51.038;6.992;2023-03-15T02:36:13;88365.44;;;-144.33;100.00
19843;BME280;10082;51.038;6.992;2023-03-15T02:38:41;90673.47;;;-144.33;100.00
19843;BME280;10082;51.038;6.992;2023-03-15T02:41:11;92019.28;;;-144.33;100.00
19843;BME280;10082;51.038;6.992;2023-03-15T02:43:40;93505.78;;;-144.33;100.00
19843;BME280;10082;51.038;6.992;2023-03-15T02:46:09;94189.13;;;-144.33;100.00
19843;BME280;10082;51.038;6.992;2023-03-15T02:48:37;94792.38;;;-144.33;100.00
19843;BME280;10082;51.038;6.992;2023-03-15T02:51:06;94750.31;;;-144.33;100.00
19843;BME280;10082;51.038;6.992;2023-03-15T02:53:34;94545.84;;;-144.33;100.00
19843;BME280;10082;51.038;6.992;2023-03-15T02:56:01;94369.50;;;-144.33;100.00
19843;BME280;10082;51.038;6.992;2023-03-15T02:58:39;94445.66;;;-144.33;100.00
19843;BME280;10082;51.038;6.992;2023-03-15T03:01:11;95654.38;;;-144.33;100.00
19843;BME280;10082;51.038;6.992;2023-03-15T03:03:39;96237.81;;;-144.33;100.00
19843;BME280;10082;51.038;6.992;2023-03-15T03:06:06;96612.78;;;-144.33;100.00
19843;BME280;10082;51.038;6.992;2023-03-15T03:08:36;97870.28;;;-144.33;100.00
19843;BME280;10082;51.038;6.992;2023-03-15T03:11:05;99250.59;;;-144.33;100.00
19843;BME280;10082;51.038;6.992;2023-03-15T03:13:34;100733.75;;;-144.33;100.00
19843;BME280;10082;51.038;6.992;2023-03-15T03:16:05;102739.56;;;-144.33;100.00
19843;BME280;10082;51.038;6.992;2023-03-15T03:18:33;104350.56;;;-144.33;100.00
19843;BME280;10082;51.038;6.992;2023-03-15T03:21:03;105359.25;;;-144.33;100.00
19843;BME280;10082;51.038;6.992;2023-03-15T03:23:32;107106.00;;;-144.33;100.00
19843;BME280;10082;51.038;6.992;2023-03-15T03:26:00;105763.22;;;-144.33;100.00
19843;BME280;10082;51.038;6.992;2023-03-15T03:28:31;106585.31;;;-144.33;100.00
19843;BME280;10082;51.038;6.992;2023-03-15T03:31:00;106084.81;;;-144.33;100.00
19843;BME280;10082;51.038;6.992;2023-03-15T03:33:29;106874.81;;;-144.33;100.00
19843;BME280;10082;51.038;6.992;2023-03-15T03:35:59;108073.16;;;-144.33;100.00
19843;BME280;10082;51.038;6.992;2023-03-15T03:38:28;109400.59;;;-144.33;100.00
19843;BME280;10082;51.038;6.992;2023-03-15T03:40:59;110096.69;;;-144.33;100.00
19843;BME280;10082;51.038;6.992;2023-03-15T03:43:29;111185.31;;;-144.33;100.00
19843;BME280;10082;51.038;6.992;2023-03-15T03:45:56;112171.53;;;-144.33;100.00
19843;BME280;10082;51.038;6.992;2023-03-15T03:48:23;112171.53;;;-144.33;100.00
19843;BME280;10082;51.038;6.992;2023-03-15T03:50:52;112171.53;;;-144.33;100.00
19843;BME280;10082;51.038;6.992;2023-03-15T03:53:19;112171.53;;;-144.33;100.00
19843;BME280;10082;51.038;6.992;2023-03-15T03:55:47;112171.53;;;-144.33;100.00
19843;BME280;10082;51.038;6.992;2023-03-15T03:58:18;112171.53;;;-144.33;100.00
19843;BME280;10082;51.038;6.992;2023-03-15T04:00:50;112171.53;;;-144.33;100.00
19843;BME280;10082;51.038;6.992;2023-03-15T04:03:20;112171.53;;;-144.33;100.00
19843;BME280;10082;51.038;6.992;2023-03-15T04:05:56;112171.53;;;-144.33;100.00
19843;BME280;10082;51.038;6.992;2023-03-15T04:08:25;112171.53;;;-144.33;100.00
19843;BME280;10082;51.038;6.992;2023-03-15T04:10:54;112171.53;;;-144.33;100.00
19843;BME280;10082;51.038;6.992;2023-03-15T04:13:24;112171.53;;;-144.33;100.00
19843;BME280;10082;51.038;6.992;2023-03-15T04:15:55;112171.53;;;-144.33;100.00
19843;BME280;10082;51.038;6.992;2023-03-15T04:18:26;112171.53;;;-144.33;100.00
19843;BME280;10082;51.038;6.992;2023-03-15T04:20:55;112171.53;;;-144.33;100.00
19843;BME280;10082;51.038;6.992;2023-03-15T04:23:23;112171.53;;;-144.33;100.00
19843;BME280;10082;51.038;6.992;2023-03-15T04:26:13;112171.53;;;-144.33;100.00
19843;BME280;10082;51.038;6.992;2023-03-15T04:28:52;112171.53;;;-144.33;100.00
19843;BME280;10082;51.038;6.992;2023-03-15T04:31:40;112171.53;;;-144.33;100.00
19843;BME280;10082;51.038;6.992;2023-03-15T04:34:21;112171.53;;;-144.33;100.00
19843;BME280;10082;51.038;6.992;2023-03-15T04:37:04;112171.53;;;-144.33;100.00
19843;BME280;10082;51.038;6.992;2023-03-15T04:39:52;112171.53;;;-144.33;100.00
19843;BME280;10082;51.038;6.992;2023-03-15T04:42:29;112171.53;;;-144.33;100.00
19843;BME280;10082;51.038;6.992;2023-03-15T04:45:30;112171.53;;;-144.33;100.00
19843;BME280;10082;51.038;6.992;2023-03-15T04:48:16;112171.53;;;-144.33;100.00
19843;BME280;10082;51.038;6.992;2023-03-15T04:50:59;112171.53;;;-144.33;100.00
19843;BME280;10082;51.038;6.992;2023-03-15T04:54:00;112171.53;;;-144.33;100.00
19843;BME280;10082;51.038;6.992;2023-03-15T04:56:47;112171.53;;;-144.33;100.00
19843;BME280;10082;51.038;6.992;2023-03-15T04:59:40;112171.53;;;-144.33;100.00
19843;BME280;10082;51.038;6.992;2023-03-15T05:02:29;112171.53;;;-144.33;100.00
19843;BME280;10082;51.038;6.992;2023-03-15T05:05:23;112171.53;;;-144.33;100.00
19843;BME280;10082;51.038;6.992;2023-03-15T05:07:56;112171.53;;;-144.33;100.00
19843;BME280;10082;51.038;6.992;2023-03-15T05:10:44;112171.53;;;-144.33;100.00
19843;BME280;10082;51.038;6.992;2023-03-15T05:13:37;112171.53;;;-144.33;100.00
19843;BME280;10082;51.038;6.992;2023-03-15T05:16:30;112171.53;;;-144.33;100.00
19843;BME280;10082;51.038;6.992;2023-03-15T05:19:33;112171.53;;;-144.33;100.00
19843;BME280;10082;51.038;6.992;2023-03-15T05:22:20;112171.53;;;-144.33;100.00
19843;BME280;10082;51.038;6.992;2023-03-15T05:25:13;112171.53;;;-144.33;100.00
19843;BME280;10082;51.038;6.992;2023-03-15T05:28:11;112171.53;;;-144.33;100.00
19843;BME280;10082;51.038;6.992;2023-03-15T05:31:01;112171.53;;;-144.33;100.00
19843;BME280;10082;51.038;6.992;2023-03-15T05:33:48;112171.53;;;-144.33;100.00
19843;BME280;10082;51.038;6.992;2023-03-15T05:36:54;112171.53;;;-144.33;100.00
19843;BME280;10082;51.038;6.992;2023-03-15T05:39:36;112171.53;;;-144.33;100.00
19843;BME280;10082;51.038;6.992;2023-03-15T05:42:30;112171.53;;;-144.33;100.00
19843;BME280;10082;51.038;6.992;2023-03-15T05:45:25;112171.53;;;-144.33;100.00
19843;BME280;10082;51.038;6.992;2023-03-15T05:48:21;112171.53;;;-144.33;100.00
19843;BME280;10082;51.038;6.992;2023-03-15T05:51:02;112171.53;;;-144.33;100.00
19843;BME280;10082;51.038;6.992;2023-03-15T05:53:45;112171.53;;;-144.33;100.00
19843;BME280;10082;51.038;6.992;2023-03-15T05:56:31;112171.53;;;-144.33;100.00
19843;BME280;10082;51.038;6.992;2023-03-15T05:59:11;112171.53;;;-144.33;100.00
19843;BME280;10082;51.038;6.992;2023-03-15T06:02:00;112171.53;;;-144.33;100.00
19843;BME280;10082;51.038;6.992;2023-03-15T06:04:35;112171.53;;;-144.33;100.00
19843;BME280;10082;51.038;6.992;2023-03-15T06:07:04;112171.53;;;-144.33;100.00
19843;BME280;10082;51.038;6.992;2023-03-15T06:09:32;112171.53;;;-144.33;100.00
19843;BME280;10082;51.038;6.992;2023-03-15T06:11:59;112171.53;;;-144.33;100.00
19843;BME280;10082;51.038;6.992;2023-03-15T06:14:26;112171.53;;;-144.33;100.00
19843;BME280;10082;51.038;6.992;2023-03-15T06:16:57;112171.53;;;-144.33;100.00
19843;BME280;10082;51.038;6.992;2023-03-15T06:19:28;112171.53;;;-144.33;100.00
19843;BME280;10082;51.038;6.992;2023-03-15T06:21:55;112171.53;;;-144.33;100.00
19843;BME280;10082;51.038;6.992;2023-03-15T06:24:28;112171.53;;;-144.33;100.00
19843;BME280;10082;51.038;6.992;2023-03-15T06:26:55;112171.53;;;-144.33;100.00
19843;BME280;10082;51.038;6.992;2023-03-15T06:29:23;112171.53;;;-144.33;100.00
19843;BME280;10082;51.038;6.992;2023-03-15T06:31:53;112171.53;;;-144.33;100.00
19843;BME280;10082;51.038;6.992;2023-03-15T06:34:20;112171.53;;;-144.33;100.00
19843;BME280;10082;51.038;6.992;2023-03-15T06:36:50;112171.53;;;-144.33;100.00
19843;BME280;10082;51.038;6.992;2023-03-15T06:39:17;112171.53;;;-144.33;100.00
19843;BME280;10082;51.038;6.992;2023-03-15T06:41:51;112171.53;;;-144.33;100.00
19843;BME280;10082;51.038;6.992;2023-03-15T06:44:21;112171.53;;;-144.33;100.00
19843;BME280;10082;51.038;6.992;2023-03-15T06:46:54;112171.53;;;-144.33;100.00
19843;BME280;10082;51.038;6.992;2023-03-15T06:49:21;112171.53;;;-144.33;100.00
19843;BME280;10082;51.038;6.992;2023-03-15T06:51:50;112171.53;;;-144.33;100.00
19843;BME280;10082;51.038;6.992;2023-03-15T06:54:17;112171.53;;;-144.33;100.00
19843;BME280;10082;51.038;6.992;2023-03-15T06:56:45;112171.53;;;-144.33;100.00
19843;BME280;10082;51.038;6.992;2023-03-15T06:59:12;112171.53;;;-144.33;100.00
19843;BME280;10082;51.038;6.992;2023-03-15T07:01:39;112171.53;;;-144.33;100.00
19843;BME280;10082;51.038;6.992;2023-03-15T07:04:06;112171.53;;;-144.33;100.00
19843;BME280;10082;51.038;6.992;2023-03-15T07:06:34;112171.53;;;-144.33;100.00
19843;BME280;10082;51.038;6.992;2023-03-15T07:09:03;112171.53;;;-144.33;100.00
19843;BME280;10082;51.038;6.992;2023-03-15T07:11:31;112171.53;;;-144.33;100.00
19843;BME280;10082;51.038;6.992;2023-03-15T07:13:58;112171.53;;;-144.33;100.00
19843;BME280;10082;51.038;6.992;2023-03-15T07:16:25;112171.53;;;-144.33;100.00
19843;BME280;10082;51.038;6.992;2023-03-15T07:18:52;112171.53;;;-144.33;100.00
19843;BME280;10082;51.038;6.992;2023-03-15T07:21:21;112171.53;;;-144.33;100.00
19843;BME280;10082;51.038;6.992;2023-03-15T07:23:48;112171.53;;;-144.33;100.00
19843;BME280;10082;51.038;6.992;2023-03-15T07:26:17;112171.53;;;-144.33;100.00
19843;BME280;10082;51.038;6.992;2023-03-15T07:28:44;112171.53;;;-144.33;100.00
19843;BME280;10082;51.038;6.992;2023-03-15T07:31:11;112171.53;;;-144.33;100.00
19843;BME280;10082;51.038;6.992;2023-03-15T07:33:39;112171.53;;;-144.33;100.00
19843;BME280;10082;51.038;6.992;2023-03-15T07:36:07;112171.53;;;-144.33;100.00
19843;BME280;10082;51.038;6.992;2023-03-15T07:38:34;112171.53;;;-144.33;100.00
19843;BME280;10082;51.038;6.992;2023-03-15T07:41:02;112171.53;;;-144.33;100.00
19843;BME280;10082;51.038;6.992;2023-03-15T07:43:31;112171.53;;;-144.33;100.00
19843;BME280;10082;51.038;6.992;2023-03-15T07:46:09;112171.53;;;-144.33;100.00
19843;BME280;10082;51.038;6.992;2023-03-15T07:48:36;112171.53;;;-144.33;100.00
19843;BME280;10082;51.038;6.992;2023-03-15T07:51:03;112171.53;;;-144.33;100.00
19843;BME280;10082;51.038;6.992;2023-03-15T07:53:31;112171.53;;;-144.33;100.00
19843;BME280;10082;51.038;6.992;2023-03-15T07:55:58;112171.53;;;-144.33;100.00
19843;BME280;10082;51.038;6.992;2023-03-15T07:58:25;112171.53;;;-144.33;100.00
19843;BME280;10082;51.038;6.992;2023-03-15T08:00:55;112171.53;;;-144.33;100.00
19843;BME280;10082;51.038;6.992;2023-03-15T08:03:22;112171.53;;;-144.33;100.00
19843;BME280;10082;51.038;6.992;2023-03-15T08:05:51;112171.53;;;-144.33;100.00
19843;BME280;10082;51.038;6.992;2023-03-15T08:08:18;112171.53;;;-144.33;100.00
19843;BME280;10082;51.038;6.992;2023-03-15T08:10:46;112171.53;;;-144.33;100.00
19843;BME280;10082;51.038;6.992;2023-03-15T08:13:13;112171.53;;;-144.33;100.00
19843;BME280;10082;51.038;6.992;2023-03-15T08:15:44;112171.53;;;-144.33;100.00
19843;BME280;10082;51.038;6.992;2023-03-15T08:18:13;112171.53;;;-144.33;100.00
19843;BME280;10082;51.038;6.992;2023-03-15T08:20:40;112171.53;;;-144.33;100.00
19843;BME280;10082;51.038;6.992;2023-03-15T08:23:08;112171.53;;;-144.33;100.00
19843;BME280;10082;51.038;6.992;2023-03-15T08:25:41;112171.53;;;-144.33;100.00
19843;BME280;10082;51.038;6.992;2023-03-15T08:28:09;112171.53;;;-144.33;100.00
19843;BME280;10082;51.038;6.992;2023-03-15T08:30:36;112171.53;;;-144.33;100.00
19843;BME280;10082;51.038;6.992;2023-03-15T08:33:03;112171.53;;;-144.33;100.00
19843;BME280;10082;51.038;6.992;2023-03-15T08:35:32;112171.53;;;-144.33;100.00
19843;BME280;10082;51.038;6.992;2023-03-15T08:38:00;112171.53;;;-144.33;100.00
19843;BME280;10082;51.038;6.992;2023-03-15T08:40:28;112171.53;;;-144.33;100.00
19843;BME280;10082;51.038;6.992;2023-03-15T08:42:56;112171.53;;;-144.33;100.00
19843;BME280;10082;51.038;6.992;2023-03-15T08:45:24;112171.53;;;-144.33;100.00
19843;BME280;10082;51.038;6.992;2023-03-15T08:47:53;112171.53;;;-144.33;100.00
19843;BME280;10082;51.038;6.992;2023-03-15T08:50:21;112171.53;;;-144.33;100.00
19843;BME280;10082;51.038;6.992;2023-03-15T08:52:50;112171.53;;;-144.33;100.00
19843;BME280;10082;51.038;6.992;2023-03-15T08:55:17;112171.53;;;-144.33;100.00
19843;BME280;10082;51.038;6.992;2023-03-15T08:57:45;112171.53;;;-144.33;100.00
19843;BME280;10082;51.038;6.992;2023-03-15T09:00:13;112171.53;;;-144.33;100.00
19843;BME280;10082;51.038;6.992;2023-03-15T09:02:44;112171.53;;;-144.33;100.00
19843;BME280;10082;51.038;6.992;2023-03-15T09:05:13;112171.53;;;-144.33;100.00
19843;BME280;10082;51.038;6.992;2023-03-15T09:07:41;112171.53;;;-144.33;100.00
19843;BME280;10082;51.038;6.992;2023-03-15T09:10:10;112171.53;;;-144.33;100.00
19843;BME280;10082;51.038;6.992;2023-03-15T09:12:39;112171.53;;;-144.33;100.00
19843;BME280;10082;51.038;6.992;2023-03-15T09:15:07;112171.53;;;-144.33;100.00
19843;BME280;10082;51.038;6.992;2023-03-15T09:17:35;112171.53;;;-144.33;100.00
19843;BME280;10082;51.038;6.992;2023-03-15T09:20:03;112171.53;;;-144.33;100.00
19843;BME280;10082;51.038;6.992;2023-03-15T09:22:33;112171.53;;;-144.33;100.00
19843;BME280;10082;51.038;6.992;2023-03-15T09:25:00;112171.53;;;-144.33;100.00
19843;BME280;10082;51.038;6.992;2023-03-15T09:27:30;112171.53;;;-144.33;100.00
19843;BME280;10082;51.038;6.992;2023-03-15T09:29:57;112171.53;;;-144.33;100.00
19843;BME280;10082;51.038;6.992;2023-03-15T09:32:24;112171.53;;;-144.33;100.00
19843;BME280;10082;51.038;6.992;2023-03-15T09:34:52;112171.53;;;-144.33;100.00
19843;BME280;10082;51.038;6.992;2023-03-15T09:37:19;112171.53;;;-144.33;100.00
19843;BME280;10082;51.038;6.992;2023-03-15T09:39:46;112171.53;;;-144.33;100.00
19843;BME280;10082;51.038;6.992;2023-03-15T09:42:17;112171.53;;;-144.33;100.00
19843;BME280;10082;51.038;6.992;2023-03-15T09:44:51;112171.53;;;-144.33;100.00
19843;BME280;10082;51.038;6.992;2023-03-15T09:47:35;112171.53;;;-144.33;100.00
19843;BME280;10082;51.038;6.992;2023-03-15T09:50:12;112171.53;;;-144.33;100.00
19843;BME280;10082;51.038;6.992;2023-03-15T09:52:47;112171.53;;;-144.33;100.00
19843;BME280;10082;51.038;6.992;2023-03-15T09:55:20;112171.53;;;-144.33;100.00
19843;BME280;10082;51.038;6.992;2023-03-15T09:57:50;112171.53;;;-144.33;100.00
19843;BME280;10082;51.038;6.992;2023-03-15T10:00:23;112171.53;;;-144.33;100.00
19843;BME280;10082;51.038;6.992;2023-03-15T10:02:57;112171.53;;;-144.33;100.00
19843;BME280;10082;51.038;6.992;2023-03-15T10:05:38;112171.53;;;-144.33;100.00
19843;BME280;10082;51.038;6.992;2023-03-15T10:08:09;112171.53;;;-144.33;100.00
19843;BME280;10082;51.038;6.992;2023-03-15T10:10:42;112171.53;;;-144.33;100.00
19843;BME280;10082;51.038;6.992;2023-03-15T10:13:22;112171.53;;;-144.33;100.00
19843;BME280;10082;51.038;6.992;2023-03-15T10:16:00;112171.53;;;-144.33;100.00
19843;BME280;10082;51.038;6.992;2023-03-15T10:18:39;112171.53;;;-144.33;100.00
19843;BME280;10082;51.038;6.992;2023-03-15T10:21:11;112171.53;;;-144.33;100.00
19843;BME280;10082;51.038;6.992;2023-03-15T10:23:42;112171.53;;;-144.33;100.00
19843;BME280;10082;51.038;6.992;2023-03-15T10:26:14;112171.53;;;-144.33;100.00
19843;BME280;10082;51.038;6.992;2023-03-15T10:28:44;112171.53;;;-144.33;100.00
19843;BME280;10082;51.038;6.992;2023-03-15T10:31:15;112171.53;;;-144.33;100.00
19843;BME280;10082;51.038;6.992;2023-03-15T10:33:44;112171.53;;;-144.33;100.00
19843;BME280;10082;51.038;6.992;2023-03-15T10:36:21;112171.53;;;-144.33;100.00
19843;BME280;10082;51.038;6.992;2023-03-15T10:38:48;112171.53;;;-144.33;99.77
19843;BME280;10082;51.038;6.992;2023-03-15T10:41:27;112171.53;;;-144.33;100.00
19843;BME280;10082;51.038;6.992;2023-03-15T10:43:57;112171.53;;;-144.33;98.36
19843;BME280;10082;51.038;6.992;2023-03-15T10:46:27;112171.53;;;-144.33;95.00
19843;BME280;10082;51.038;6.992;2023-03-15T10:48:56;112171.53;;;-144.33;93.68
19843;BME280;10082;51.038;6.992;2023-03-15T10:51:26;112171.53;;;-144.33;93.70
19843;BME280;10082;51.038;6.992;2023-03-15T10:53:55;112171.53;;;-144.33;95.27
19843;BME280;10082;51.038;6.992;2023-03-15T10:56:26;112171.53;;;-144.33;93.59
19843;BME280;10082;51.038;6.992;2023-03-15T10:58:54;112171.53;;;-144.33;88.79
19843;BME280;10082;51.038;6.992;2023-03-15T11:01:24;112171.53;;;-144.33;87.80
19843;BME280;10082;51.038;6.992;2023-03-15T11:04:12;112171.53;;;-144.33;85.45
19843;BME280;10082;51.038;6.992;2023-03-15T11:06:43;112171.53;;;-144.33;86.91
19843;BME280;10082;51.038;6.992;2023-03-15T11:09:11;112171.53;;;-144.33;88.89
19843;BME280;10082;51.038;6.992;2023-03-15T11:11:58;112171.53;;;-144.33;92.04
19843;BME280;10082;51.038;6.992;2023-03-15T11:14:29;112171.53;;;-144.33;87.60
19843;BME280;10082;51.038;6.992;2023-03-15T11:16:58;112171.53;;;-144.33;87.21
19843;BME280;10082;51.038;6.992;2023-03-15T11:19:29;112171.53;;;-144.33;89.90
19843;BME280;10082;51.038;6.992;2023-03-15T11:21:58;112171.53;;;-144.33;89.29
19843;BME280;10082;51.038;6.992;2023-03-15T11:24:28;112171.53;;;-144.33;91.03
19843;BME280;10082;51.038;6.992;2023-03-15T11:26:58;112171.53;;;-144.33;89.03
19843;BME280;10082;51.038;6.992;2023-03-15T11:29:27;112171.53;;;-144.33;87.02
19843;BME280;10082;51.038;6.992;2023-03-15T11:31:57;112171.53;;;-144.33;87.15
19843;BME280;10082;51.038;6.992;2023-03-15T11:34:37;112171.53;;;-144.33;88.52
19843;BME280;10082;51.038;6.992;2023-03-15T11:37:11;112171.53;;;-144.33;88.88
19843;BME280;10082;51.038;6.992;2023-03-15T11:39:44;112171.53;;;-144.33;82.07
19843;BME280;10082;51.038;6.992;2023-03-15T11:42:22;112171.53;;;-144.33;79.28
19843;BME280;10082;51.038;6.992;2023-03-15T11:44:54;112171.53;;;-144.33;79.16
19843;BME280;10082;51.038;6.992;2023-03-15T11:47:33;112171.53;;;-144.33;75.15
19843;BME280;10082;51.038;6.992;2023-03-15T11:50:06;112171.53;;;-144.33;76.70
19843;BME280;10082;51.038;6.992;2023-03-15T11:52:37;112171.53;;;-144.33;76.59
19843;BME280;10082;51.038;6.992;2023-03-15T11:55:04;112171.53;;;-144.33;75.30
19843;BME280;10082;51.038;6.992;2023-03-15T11:57:43;112171.53;;;-144.33;78.18
19843;BME280;10082;51.038;6.992;2023-03-15T12:03:32;112171.53;;;-144.33;76.91
19843;BME280;10082;51.038;6.992;2023-03-15T12:08:47;112171.53;;;-144.33;74.92
19843;BME280;10082;51.038;6.992;2023-03-15T12:11:37;112171.53;;;-144.33;72.42
19843;BME280;10082;51.038;6.992;2023-03-15T12:14:10;112171.53;;;-144.33;70.21
19843;BME280;10082;51.038;6.992;2023-03-15T12:16:46;112171.53;;;-144.33;70.64
19843;BME280;10082;51.038;6.992;2023-03-15T12:19:15;112171.53;;;-144.33;73.50
19843;BME280;10082;51.038;6.992;2023-03-15T12:21:46;112171.53;;;-144.33;75.41
19843;BME280;10082;51.038;6.992;2023-03-15T12:24:16;112171.53;;;-144.33;78.09
19843;BME280;10082;51.038;6.992;2023-03-15T12:26:49;112171.53;;;-144.33;78.96
19843;BME280;10082;51.038;6.992;2023-03-15T12:29:20;112171.53;;;-144.33;77.43
19843;BME280;10082;51.038;6.992;2023-03-15T12:32:07;112171.53;;;-144.33;76.45
19843;BME280;10082;51.038;6.992;2023-03-15T12:34:42;112171.53;;;-144.33;76.80
19843;BME280;10082;51.038;6.992;2023-03-15T12:37:16;112171.53;;;-144.33;71.51
19843;BME280;10082;51.038;6.992;2023-03-15T12:39:47;112171.53;;;-144.33;71.12
19843;BME280;10082;51.038;6.992;2023-03-15T12:45:45;112171.53;;;-144.33;73.28
19843;BME280;10082;51.038;6.992;2023-03-15T12:48:21;112171.53;;;-144.33;72.39
19843;BME280;10082;51.038;6.992;2023-03-15T12:50:51;112171.53;;;-144.33;72.47
19843;BME280;10082;51.038;6.992;2023-03-15T12:53:26;112171.53;;;-144.33;74.16
19843;BME280;10082;51.038;6.992;2023-03-15T12:55:58;112171.53;;;-144.33;74.97
19843;BME280;10082;51.038;6.992;2023-03-15T12:58:39;112171.53;;;-144.33;71.03